KMFD/MFD METAR and TAF weather

Enter ICAO airport designator
Station Type Date Time Source
KMFD METAR 2020/04/04 19:52 UTC NOAA

KMFD 041952Z 35005KT 10SM CLR 19/01 A2999 RMK AO2 SLP156 T01940006


Station Type Date Time Source
KMFD Decoded METAR 2020/04/04 19:52 UTC NOAA

LAHM MUNICIPAL AIRPORT, OH, United States (KMFD) 40-49N 082-31W 395M
Apr 04, 2020 - 03:52 PM EDT / 2020.04.04 1952 UTC
Wind: from the N (350 degrees) at 6 MPH (5 KT):0
Visibility: 10 mile(s):0
Sky conditions: clear
Temperature: 66.9 F (19.4 C)
Dew Point: 33.1 F (0.6 C)
Relative Humidity: 28%
Pressure (altimeter): 29.99 in. Hg (1015 hPa)
ob: KMFD 041952Z 35005KT 10SM CLR 19/01 A2999 RMK AO2 SLP156 T01940006
cycle: 20

Station Type Date Time Source
KMFD TAF 2020/04/04 18:42 UTC NOAA

TAF
AMD KMFD 041741Z 0418/0518 VRB04KT P6SM BKN070
FM050900 35006KT P6SM SCT015 OVC050
FM051600 01008KT P6SM SCT010 BKN070

Example: see airport list